Olmida — ZCNU4 — position and weather

sailwx.info

Track history (hours):
 
Tides and Currents Weather Stations Pressure Air Temp Water Temp Dewpoint Dewpoint Depression Visibility Wind Speed Wind Dir Waves Ship Positions

Olmida

Last reported at 2015-Aug-05 07:23 UTC. Time now 2015-Aug-05 08:25 UTC.
Position N 38°50' E 001°23'.

; draft 3.2 m.

Type: Pleasure craft. MMSI: 319196000.

Date/timePositionNaut miles runAvg speedWind from/ knotsBaromVisibWave heightAir tempDewpointWater temp
2015-Aug-05 07:23N 38°50' E 001°23'0 0.0
2015-Aug-05 04:23N 38°50' E 001°23'0 0.0
2015-Aug-05 03:29N 38°50' E 001°23'0 0.0
2015-Aug-05 01:23N 38°50' E 001°23'0 0.0
2015-Aug-05 00:29N 38°50' E 001°23'0 0.0
2015-Aug-04 23:11N 38°50' E 001°23'0 0.0
2015-Aug-04 22:17N 38°50' E 001°23'0 0.0
2015-Aug-04 19:27N 38°50' E 001°23'5 5.5
2015-Aug-04 18:29N 38°45' E 001°26'0 0.0
2015-Aug-04 17:23N 38°45' E 001°26'0 0.0
2015-Aug-04 15:17N 38°45' E 001°26'0 0.0
2015-Aug-04 11:16N 38°45' E 001°26'0 0.0
2015-Aug-04 09:28N 38°45' E 001°26'0 0.1
2015-Aug-04 08:21N 38°45' E 001°26'0 0.0
2015-Aug-04 07:27N 38°45' E 001°26'0 0.0
2015-Aug-04 06:19N 38°45' E 001°26'0 0.0
2015-Aug-04 01:09N 38°45' E 001°26'0 0.0
2015-Aug-04 00:33N 38°45' E 001°26'0 0.0
2015-Aug-03 23:33N 38°45' E 001°26'0 0.1
2015-Aug-03 19:30N 38°45' E 001°25'3 2.6
2015-Aug-03 18:11N 38°42' E 001°23'0 0.0
2015-Aug-03 15:34N 38°42' E 001°23'4 4.3
2015-Aug-03 14:33N 38°46' E 001°25'4 3.7
2015-Aug-03 13:25N 38°50' E 001°23'0 0.0
2015-Aug-03 12:32N 38°50' E 001°23'0 0.0
2015-Aug-03 08:25N 38°50' E 001°23'0 0.0
2015-Aug-03 03:19N 38°50' E 001°23'0 0.0
2015-Aug-02 22:12N 38°50' E 001°23'0 0.0
2015-Aug-02 17:30N 38°50' E 001°23'0 0.0
2015-Aug-01 20:23N 38°50' E 001°23'  
2015-Jul-29 17:04N 38°58' E 001°15'  
Track history (hours):
 
Tides and Currents Weather Stations Pressure Air Temp Water Temp Dewpoint Dewpoint Depression Visibility Wind Speed Wind Dir Waves Ship Positions

Olmida

Last reported at 2015-Aug-05 07:23 UTC. Time now 2015-Aug-05 08:25 UTC.
Position N 38°50' E 001°23'.

; draft 3.2 m.

Type: Pleasure craft. MMSI: 319196000.

Date/timePositionNaut miles runAvg speedWind from/ knotsBaromVisibWave heightAir tempDewpointWater temp
2015-Aug-05 07:23N 38°50' E 001°23'0 0.0
2015-Aug-05 04:23N 38°50' E 001°23'0 0.0
2015-Aug-05 03:29N 38°50' E 001°23'0 0.0
2015-Aug-05 01:23N 38°50' E 001°23'0 0.0
2015-Aug-05 00:29N 38°50' E 001°23'0 0.0
2015-Aug-04 23:11N 38°50' E 001°23'0 0.0
2015-Aug-04 22:17N 38°50' E 001°23'0 0.0
2015-Aug-04 19:27N 38°50' E 001°23'5 5.5
2015-Aug-04 18:29N 38°45' E 001°26'0 0.0
2015-Aug-04 17:23N 38°45' E 001°26'0 0.0
2015-Aug-04 15:17N 38°45' E 001°26'0 0.0
2015-Aug-04 11:16N 38°45' E 001°26'0 0.0
2015-Aug-04 09:28N 38°45' E 001°26'0 0.1
2015-Aug-04 08:21N 38°45' E 001°26'0 0.0
2015-Aug-04 07:27N 38°45' E 001°26'0 0.0
2015-Aug-04 06:19N 38°45' E 001°26'0 0.0
2015-Aug-04 01:09N 38°45' E 001°26'0 0.0
2015-Aug-04 00:33N 38°45' E 001°26'0 0.0
2015-Aug-03 23:33N 38°45' E 001°26'0 0.1
2015-Aug-03 19:30N 38°45' E 001°25'3 2.6
2015-Aug-03 18:11N 38°42' E 001°23'0 0.0
2015-Aug-03 15:34N 38°42' E 001°23'4 4.3
2015-Aug-03 14:33N 38°46' E 001°25'4 3.7
2015-Aug-03 13:25N 38°50' E 001°23'0 0.0
2015-Aug-03 12:32N 38°50' E 001°23'0 0.0
2015-Aug-03 08:25N 38°50' E 001°23'0 0.0
2015-Aug-03 03:19N 38°50' E 001°23'0 0.0
2015-Aug-02 22:12N 38°50' E 001°23'0 0.0
2015-Aug-02 17:30N 38°50' E 001°23'0 0.0
2015-Aug-01 20:23N 38°50' E 001°23'  
2015-Jul-29 17:04N 38°58' E 001°15'  

Dump ship's entire track history